Time;durP1;ratioP1;P1;durP2;ratioP2;P2;SDS_P1;SDS_P2;PMS_P1;PMS_P2;Temp;Humidity;BMP_temperature;BMP_pressure;BME280_temperature;BME280_humidity;BME280_pressure;Samples;Min_cycle;Max_cycle;Signal;HPM_P1;HPM_P2
2021/05/14 00:01:57;;;;;;;10.57;8.50;;;;;;;;;;5033297;28;20445;-59
2021/05/14 00:04:24;;;;;;;12.20;8.53;;;;;;;;;;5032892;28;21019;-59
2021/05/14 00:06:51;;;;;;;10.80;8.40;;;;;;;;;;5033019;28;20542;-59
2021/05/14 00:09:19;;;;;;;9.77;8.83;;;;;;;;;;5033373;28;20488;-58
2021/05/14 00:11:46;;;;;;;11.13;8.97;;;;;;;;;;5033045;28;20447;-59
2021/05/14 00:14:13;;;;;;;9.97;8.23;;;;;;;;;;5033301;28;20491;-59
2021/05/14 00:16:40;;;;;;;11.57;9.00;;;;;;;;;;5033528;28;20461;-59
2021/05/14 00:19:06;;;;;;;10.63;8.60;;;;;;;;;;5033040;28;20445;-58
2021/05/14 00:21:34;;;;;;;9.30;7.97;;;;;;;;;;5033172;28;20447;-59
2021/05/14 00:24:01;;;;;;;9.87;7.43;;;;;;;;;;5035321;28;20448;-58
2021/05/14 00:26:29;;;;;;;9.43;7.50;;;;;;;;;;5036975;28;20465;-59
2021/05/14 00:28:55;;;;;;;10.70;8.17;;;;;;;;;;5037136;28;20531;-58
2021/05/14 00:31:23;;;;;;;8.77;7.87;;;;;;;;;;5036763;28;20869;-58
2021/05/14 00:33:50;;;;;;;9.40;7.50;;;;;;;;;;5036902;28;20457;-58
2021/05/14 00:36:16;;;;;;;9.00;7.80;;;;;;;;;;5036585;28;20603;-58
2021/05/14 00:38:43;;;;;;;8.40;7.60;;;;;;;;;;5036952;28;20444;-58
2021/05/14 00:41:10;;;;;;;8.40;7.70;;;;;;;;;;5036970;28;20495;-59
2021/05/14 00:43:38;;;;;;;7.93;7.13;;;;;;;;;;5037017;28;20446;-59
2021/05/14 00:46:04;;;;;;;7.90;7.10;;;;;;;;;;5036513;28;20465;-59
2021/05/14 00:48:31;;;;;;;9.40;8.37;;;;;;;;;;5036900;28;20473;-59
2021/05/14 00:50:58;;;;;;;8.50;7.60;;;;;;;;;;5036802;28;20454;-57
2021/05/14 00:53:25;;;;;;;8.47;7.67;;;;;;;;;;5037187;28;20518;-59
2021/05/14 00:55:51;;;;;;;10.60;8.40;;;;;;;;;;5036310;28;20983;-59
2021/05/14 00:58:18;;;;;;;8.77;7.20;;;;;;;;;;5036264;28;20557;-58
2021/05/14 01:00:46;;;;;;;9.30;7.10;;;;;;;;;;5036792;28;20495;-58
2021/05/14 01:03:14;;;;;;;9.50;7.20;;;;;;;;;;5036357;28;20820;-59
2021/05/14 01:05:41;;;;;;;7.93;6.93;;;;;;;;;;5036703;28;20484;-58
2021/05/14 01:08:09;;;;;;;7.70;6.90;;;;;;;;;;5036599;28;20462;-58
2021/05/14 01:10:36;;;;;;;11.70;7.83;;;;;;;;;;5036278;28;20455;-59
2021/05/14 01:13:03;;;;;;;9.37;8.17;;;;;;;;;;5036543;28;20448;-58
2021/05/14 01:15:29;;;;;;;10.87;7.97;;;;;;;;;;5036275;28;20469;-58
2021/05/14 01:17:57;;;;;;;12.47;7.87;;;;;;;;;;5036263;28;20437;-59
2021/05/14 01:20:28;;;;;;;12.13;7.83;;;;;;;;;;5036308;28;20495;-59
2021/05/14 01:22:55;;;;;;;9.97;7.77;;;;;;;;;;5036271;28;20441;-58
2021/05/14 01:25:22;;;;;;;9.87;7.40;;;;;;;;;;5036067;28;20459;-59
2021/05/14 01:27:49;;;;;;;9.63;7.37;;;;;;;;;;5036473;28;20447;-58
2021/05/14 01:30:16;;;;;;;10.20;7.63;;;;;;;;;;5037216;28;20456;-58
2021/05/14 01:32:43;;;;;;;8.80;7.90;;;;;;;;;;5036072;28;20441;-58
2021/05/14 01:35:10;;;;;;;8.90;8.00;;;;;;;;;;5035353;28;20444;-57
2021/05/14 01:37:40;;;;;;;11.57;8.83;;;;;;;;;;5035918;28;20442;-58
2021/05/14 01:40:08;;;;;;;9.70;8.70;;;;;;;;;;5035616;28;20505;-57
2021/05/14 01:42:35;;;;;;;10.77;8.77;;;;;;;;;;5035572;28;20811;-57
2021/05/14 01:45:01;;;;;;;9.20;8.23;;;;;;;;;;5035767;28;20453;-57
2021/05/14 01:47:28;;;;;;;11.53;8.20;;;;;;;;;;5036911;28;20992;-58
2021/05/14 01:49:55;;;;;;;12.97;9.83;;;;;;;;;;5035295;28;20992;-59
2021/05/14 01:52:21;;;;;;;10.40;8.47;;;;;;;;;;5035782;28;20874;-57
2021/05/14 01:54:49;;;;;;;10.23;8.57;;;;;;;;;;5035344;28;20846;-58
2021/05/14 01:57:16;;;;;;;11.23;8.90;;;;;;;;;;5035461;28;20464;-59
2021/05/14 01:59:42;;;;;;;10.07;8.00;;;;;;;;;;5035089;28;20937;-57
2021/05/14 02:02:09;;;;;;;12.13;9.33;;;;;;;;;;5035449;28;20502;-59
2021/05/14 02:04:36;;;;;;;10.10;9.00;;;;;;;;;;5035477;28;20510;-59
2021/05/14 02:07:03;;;;;;;11.67;9.33;;;;;;;;;;5034938;28;20856;-58
2021/05/14 02:09:29;;;;;;;13.07;9.20;;;;;;;;;;5034946;28;20991;-58
2021/05/14 02:11:57;;;;;;;10.10;8.80;;;;;;;;;;5034986;28;20445;-58
2021/05/14 02:14:24;;;;;;;14.23;10.17;;;;;;;;;;5035176;28;20820;-58
2021/05/14 02:16:50;;;;;;;9.97;8.60;;;;;;;;;;5034772;28;20530;-58
2021/05/14 02:19:17;;;;;;;10.23;7.85;;;;;;;;;;5035135;28;20438;-58
2021/05/14 02:21:44;;;;;;;9.47;8.47;;;;;;;;;;5035037;28;20203;-58
2021/05/14 02:24:11;;;;;;;15.07;10.97;;;;;;;;;;5034675;28;20817;-58
2021/05/14 02:26:37;;;;;;;10.20;9.10;;;;;;;;;;5034889;28;20837;-58
2021/05/14 02:29:05;;;;;;;11.83;9.07;;;;;;;;;;5034895;28;20473;-58
2021/05/14 02:31:32;;;;;;;11.93;8.90;;;;;;;;;;5034533;28;20441;-58
2021/05/14 02:33:59;;;;;;;13.73;9.73;;;;;;;;;;5034783;28;20499;-58
2021/05/14 02:36:26;;;;;;;13.00;10.37;;;;;;;;;;5034651;28;20472;-58
2021/05/14 02:38:53;;;;;;;11.77;10.53;;;;;;;;;;5034718;28;20433;-58
2021/05/14 02:41:20;;;;;;;12.30;10.20;;;;;;;;;;5034661;28;20440;-58
2021/05/14 02:43:46;;;;;;;12.33;11.00;;;;;;;;;;5034581;28;20441;-58
2021/05/14 02:46:14;;;;;;;12.50;11.20;;;;;;;;;;5033862;28;20468;-58
2021/05/14 02:48:41;;;;;;;15.47;11.77;;;;;;;;;;5034249;28;20486;-58
2021/05/14 02:51:08;;;;;;;11.20;10.20;;;;;;;;;;5034495;28;20465;-58
2021/05/14 02:53:35;;;;;;;17.40;14.70;;;;;;;;;;5034491;28;20452;-58
2021/05/14 02:56:02;;;;;;;17.17;15.37;;;;;;;;;;5034330;28;20464;-58
2021/05/14 02:58:28;;;;;;;19.07;13.87;;;;;;;;;;5034409;28;20449;-58
2021/05/14 03:00:56;;;;;;;16.70;14.67;;;;;;;;;;5034006;28;20992;-58
2021/05/14 03:03:23;;;;;;;19.80;15.07;;;;;;;;;;5034307;28;20541;-58
2021/05/14 03:05:50;;;;;;;18.80;15.30;;;;;;;;;;5035263;28;20485;-58
2021/05/14 03:08:17;;;;;;;17.05;15.10;;;;;;;;;;5033759;28;20233;-58
2021/05/14 03:10:44;;;;;;;17.87;15.90;;;;;;;;;;5034158;28;20209;-58
2021/05/14 03:13:11;;;;;;;25.10;15.35;;;;;;;;;;5034104;28;20468;-58
2021/05/14 03:15:37;;;;;;;18.30;14.80;;;;;;;;;;5034023;28;20289;-58
2021/05/14 03:18:04;;;;;;;17.45;14.52;;;;;;;;;;5033742;28;20206;-58
2021/05/14 03:20:32;;;;;;;18.90;16.05;;;;;;;;;;5033961;28;20206;-58
2021/05/14 03:22:59;;;;;;;19.67;15.93;;;;;;;;;;5033590;28;20576;-58
2021/05/14 03:25:25;;;;;;;17.83;15.70;;;;;;;;;;5033737;28;20448;-58
2021/05/14 03:27:52;;;;;;;21.03;16.80;;;;;;;;;;5033763;28;20452;-58
2021/05/14 03:30:19;;;;;;;21.73;17.58;;;;;;;;;;5033643;28;20501;-58
2021/05/14 03:32:46;;;;;;;23.50;18.97;;;;;;;;;;5033735;28;20210;-58
2021/05/14 03:35:13;;;;;;;24.47;19.40;;;;;;;;;;5033403;28;20979;-60
2021/05/14 03:37:41;;;;;;;26.50;19.70;;;;;;;;;;5033372;28;20933;-58
2021/05/14 03:40:17;;;;;;;28.33;21.10;;;;;;;;;;5033657;28;20472;-58
2021/05/14 03:42:44;;;;;;;22.67;20.08;;;;;;;;;;5033410;28;20784;-59
2021/05/14 03:45:11;;;;;;;24.85;20.30;;;;;;;;;;5033580;28;20225;-58
2021/05/14 03:47:38;;;;;;;27.30;21.33;;;;;;;;;;5033499;28;20199;-58
2021/05/14 03:50:05;;;;;;;28.03;20.60;;;;;;;;;;5033668;28;20226;-58
2021/05/14 03:52:33;;;;;;;26.38;21.30;;;;;;;;;;5033496;28;20452;-58
2021/05/14 03:55:00;;;;;;;29.23;22.27;;;;;;;;;;5033193;28;20213;-58
2021/05/14 03:57:27;;;;;;;27.47;22.50;;;;;;;;;;5032807;28;20469;-58
2021/05/14 03:59:54;;;;;;;34.50;22.30;;;;;;;;;;5032931;28;20499;-58
2021/05/14 04:02:21;;;;;;;28.55;22.83;;;;;;;;;;5033199;28;20499;-58
2021/05/14 04:08:06;;;;;;;30.20;23.13;;;;;;;;;;5111812;27;21026;-60
2021/05/14 04:10:47;;;;;;;29.55;24.33;;;;;;;;;;5111415;28;20575;-59
2021/05/14 04:16:00;;;;;;;35.23;24.10;;;;;;;;;;5110865;28;20314;-59
2021/05/14 04:18:26;;;;;;;32.80;23.83;;;;;;;;;;5111027;28;20472;-59
2021/05/14 04:20:53;;;;;;;34.00;25.23;;;;;;;;;;5110607;28;20442;-60
2021/05/14 04:23:21;;;;;;;37.40;26.33;;;;;;;;;;5110540;28;20200;-59
2021/05/14 04:25:47;;;;;;;35.97;26.80;;;;;;;;;;5111224;28;20462;-60
2021/05/14 04:28:14;;;;;;;32.93;25.40;;;;;;;;;;5110860;28;20468;-60
2021/05/14 04:30:41;;;;;;;34.57;25.27;;;;;;;;;;5110833;28;20446;-59
2021/05/14 04:33:08;;;;;;;34.67;27.00;;;;;;;;;;5110682;28;20452;-60
2021/05/14 04:35:35;;;;;;;37.90;27.00;;;;;;;;;;5110685;28;20461;-60
2021/05/14 04:38:02;;;;;;;42.20;27.60;;;;;;;;;;5110686;28;20196;-60
2021/05/14 04:40:30;;;;;;;40.28;28.52;;;;;;;;;;5110519;28;20506;-59
2021/05/14 04:43:00;;;;;;;41.88;29.05;;;;;;;;;;5110605;28;20587;-60
2021/05/14 04:45:26;;;;;;;46.60;29.40;;;;;;;;;;5110578;28;20203;-59
2021/05/14 04:47:53;;;;;;;39.30;27.97;;;;;;;;;;5109938;28;20477;-59
2021/05/14 04:50:20;;;;;;;37.20;27.60;;;;;;;;;;5110323;28;20441;-60
2021/05/14 04:52:47;;;;;;;38.35;28.35;;;;;;;;;;5110052;28;20448;-59
2021/05/14 04:55:15;;;;;;;40.03;28.98;;;;;;;;;;5110202;28;20199;-59
2021/05/14 04:57:42;;;;;;;40.63;28.23;;;;;;;;;;5110171;28;20309;-60
2021/05/14 05:00:10;;;;;;;41.40;28.50;;;;;;;;;;5110166;28;20206;-59
2021/05/14 05:02:37;;;;;;;41.08;27.95;;;;;;;;;;5110097;28;20617;-58
2021/05/14 05:05:05;;;;;;;44.20;31.33;;;;;;;;;;5109880;28;20226;-59
2021/05/14 05:07:32;;;;;;;42.25;29.52;;;;;;;;;;5109387;28;20231;-58
2021/05/14 05:09:58;;;;;;;44.90;31.27;;;;;;;;;;5109845;28;20218;-58
2021/05/14 05:12:25;;;;;;;40.03;29.63;;;;;;;;;;5109553;28;20937;-58
2021/05/14 05:14:53;;;;;;;40.23;28.17;;;;;;;;;;5109751;28;20200;-58
2021/05/14 05:17:20;;;;;;;47.30;30.73;;;;;;;;;;5108391;28;20466;-58
2021/05/14 05:19:46;;;;;;;47.03;31.23;;;;;;;;;;5095798;28;20207;-59
2021/05/14 05:22:13;;;;;;;49.25;30.08;;;;;;;;;;5096101;28;20230;-59
2021/05/14 05:24:40;;;;;;;45.88;30.85;;;;;;;;;;5096121;28;20207;-59
2021/05/14 05:27:07;;;;;;;46.08;31.17;;;;;;;;;;5096070;28;20220;-59
2021/05/14 05:29:35;;;;;;;44.75;29.52;;;;;;;;;;5096403;28;20200;-59
2021/05/14 05:32:04;;;;;;;49.47;32.50;;;;;;;;;;5095769;28;20204;-58
2021/05/14 05:34:31;;;;;;;49.90;33.20;;;;;;;;;;5096358;28;20203;-58
2021/05/14 05:36:58;;;;;;;46.95;30.42;;;;;;;;;;5095801;28;20281;-58
2021/05/14 05:39:24;;;;;;;45.35;28.45;;;;;;;;;;5095541;28;20215;-58
2021/05/14 05:41:51;;;;;;;51.63;33.10;;;;;;;;;;5095623;28;20200;-59
2021/05/14 05:44:18;;;;;;;43.22;28.25;;;;;;;;;;5095427;28;20465;-59
2021/05/14 05:46:45;;;;;;;45.70;30.47;;;;;;;;;;5094982;28;20216;-59
2021/05/14 05:49:12;;;;;;;48.07;31.40;;;;;;;;;;5096223;28;20491;-59
2021/05/14 05:51:39;;;;;;;47.87;29.10;;;;;;;;;;5095482;28;20438;-59
2021/05/14 05:54:08;;;;;;;41.80;28.80;;;;;;;;;;5095593;28;20458;-59
2021/05/14 05:56:34;;;;;;;39.73;27.87;;;;;;;;;;5096307;28;20219;-59
2021/05/14 05:59:01;;;;;;;47.37;29.20;;;;;;;;;;5095710;28;20450;-60
2021/05/14 06:01:28;;;;;;;50.60;29.10;;;;;;;;;;5095274;28;20447;-59
2021/05/14 06:03:55;;;;;;;41.70;28.13;;;;;;;;;;5095315;28;20446;-61
2021/05/14 06:06:23;;;;;;;42.47;26.20;;;;;;;;;;5095290;28;20490;-60
2021/05/14 06:08:50;;;;;;;44.90;28.07;;;;;;;;;;5096173;28;20469;-59
2021/05/14 06:11:16;;;;;;;42.80;27.30;;;;;;;;;;5095372;28;20957;-58
2021/05/14 06:13:43;;;;;;;37.73;25.93;;;;;;;;;;5096732;28;20992;-60
2021/05/14 06:16:10;;;;;;;41.37;27.70;;;;;;;;;;5094958;28;20465;-59
2021/05/14 06:18:38;;;;;;;43.30;28.40;;;;;;;;;;5095133;28;20454;-59
2021/05/14 06:21:06;;;;;;;42.13;28.93;;;;;;;;;;5096627;28;20455;-60
2021/05/14 06:23:34;;;;;;;41.40;26.10;;;;;;;;;;5095243;28;20525;-60
2021/05/14 06:26:01;;;;;;;40.00;26.93;;;;;;;;;;5094782;28;20466;-60
2021/05/14 06:28:27;;;;;;;37.67;24.57;;;;;;;;;;5094855;28;20473;-60
2021/05/14 06:30:54;;;;;;;36.23;24.23;;;;;;;;;;5093374;28;20950;-60
2021/05/14 06:33:21;;;;;;;36.83;23.93;;;;;;;;;;5095187;28;20449;-59
2021/05/14 06:35:49;;;;;;;36.13;24.27;;;;;;;;;;5096160;28;20592;-59
2021/05/14 06:38:16;;;;;;;31.27;22.67;;;;;;;;;;5094964;28;20476;-59
2021/05/14 06:40:44;;;;;;;36.53;23.30;;;;;;;;;;5093997;28;20933;-60
2021/05/14 06:43:11;;;;;;;30.80;20.80;;;;;;;;;;5094149;28;20443;-58
2021/05/14 06:45:37;;;;;;;36.10;22.23;;;;;;;;;;5094048;28;20496;-59
2021/05/14 06:48:04;;;;;;;33.70;21.40;;;;;;;;;;5094488;28;20891;-58
2021/05/14 06:50:31;;;;;;;32.60;22.10;;;;;;;;;;5094741;28;20473;-58
2021/05/14 06:52:58;;;;;;;28.93;20.50;;;;;;;;;;5094133;28;20447;-59
2021/05/14 06:55:25;;;;;;;30.40;21.57;;;;;;;;;;5094337;28;20439;-59
2021/05/14 06:57:53;;;;;;;33.50;21.10;;;;;;;;;;5093819;28;20455;-58
2021/05/14 07:00:20;;;;;;;29.07;19.33;;;;;;;;;;5093957;28;20520;-58
2021/05/14 07:02:48;;;;;;;30.30;20.50;;;;;;;;;;5094073;28;20443;-59
2021/05/14 07:05:15;;;;;;;29.63;21.50;;;;;;;;;;5094795;28;20831;-59
2021/05/14 07:07:42;;;;;;;28.87;20.40;;;;;;;;;;5093218;28;20487;-59
2021/05/14 07:10:09;;;;;;;28.60;20.83;;;;;;;;;;5093727;28;20436;-60
2021/05/14 07:12:36;;;;;;;26.53;19.60;;;;;;;;;;5094188;28;20537;-59
2021/05/14 07:15:04;;;;;;;28.97;19.93;;;;;;;;;;5093800;28;20944;-59
2021/05/14 07:17:30;;;;;;;26.70;19.30;;;;;;;;;;5093852;28;20467;-59
2021/05/14 07:19:57;;;;;;;23.33;17.63;;;;;;;;;;5093601;28;20444;-59
2021/05/14 07:22:24;;;;;;;22.47;17.63;;;;;;;;;;5093367;28;20455;-59
2021/05/14 07:24:50;;;;;;;23.93;18.97;;;;;;;;;;5092851;28;20813;-59
2021/05/14 07:27:17;;;;;;;24.07;18.90;;;;;;;;;;5093339;28;20485;-59
2021/05/14 07:29:44;;;;;;;26.20;18.93;;;;;;;;;;5093325;28;20457;-59
2021/05/14 07:32:12;;;;;;;28.20;18.47;;;;;;;;;;5093518;28;20441;-59
2021/05/14 07:34:39;;;;;;;24.00;17.03;;;;;;;;;;5093373;28;20440;-59
2021/05/14 07:37:07;;;;;;;21.67;17.23;;;;;;;;;;5093078;28;20465;-59
2021/05/14 07:39:36;;;;;;;24.60;18.63;;;;;;;;;;5093240;28;20564;-59
2021/05/14 07:42:02;;;;;;;24.87;18.67;;;;;;;;;;5093432;28;20875;-59
2021/05/14 07:44:29;;;;;;;22.77;18.10;;;;;;;;;;5093259;28;20462;-59
2021/05/14 07:46:56;;;;;;;24.70;19.13;;;;;;;;;;5092518;28;20965;-59
2021/05/14 07:49:24;;;;;;;23.33;18.47;;;;;;;;;;5093154;28;20449;-59
2021/05/14 07:51:50;;;;;;;26.33;20.10;;;;;;;;;;5092783;28;20446;-59
2021/05/14 07:54:17;;;;;;;24.10;18.13;;;;;;;;;;5093032;28;20817;-59
2021/05/14 07:56:44;;;;;;;23.47;18.30;;;;;;;;;;5095000;28;20461;-59
2021/05/14 07:59:11;;;;;;;23.10;18.40;;;;;;;;;;5093918;28;20886;-59
2021/05/14 08:01:38;;;;;;;24.07;17.77;;;;;;;;;;5092727;28;20480;-59
2021/05/14 08:04:05;;;;;;;23.60;17.50;;;;;;;;;;5092818;28;20446;-59
2021/05/14 08:06:33;;;;;;;20.07;15.27;;;;;;;;;;5092724;28;20481;-59
2021/05/14 08:09:04;;;;;;;22.10;16.47;;;;;;;;;;5092923;28;20768;-59
2021/05/14 08:11:31;;;;;;;20.90;16.60;;;;;;;;;;5092910;28;20533;-59
2021/05/14 08:13:57;;;;;;;20.17;16.80;;;;;;;;;;5092745;28;20534;-59
2021/05/14 08:16:24;;;;;;;18.27;13.73;;;;;;;;;;5092775;28;20488;-61
2021/05/14 08:18:51;;;;;;;17.37;13.70;;;;;;;;;;5092672;28;20449;-60
2021/05/14 08:21:18;;;;;;;18.90;15.30;;;;;;;;;;5092936;28;20451;-60
2021/05/14 08:23:46;;;;;;;16.13;13.30;;;;;;;;;;5092836;28;20446;-60
2021/05/14 08:26:12;;;;;;;17.67;14.60;;;;;;;;;;5092560;28;20470;-60
2021/05/14 08:28:39;;;;;;;15.60;13.63;;;;;;;;;;5092446;28;20953;-60
2021/05/14 08:31:06;;;;;;;17.70;13.57;;;;;;;;;;5092309;28;20449;-60
2021/05/14 08:33:32;;;;;;;13.37;11.97;;;;;;;;;;5092344;28;20442;-59
2021/05/14 08:35:59;;;;;;;14.57;12.97;;;;;;;;;;5092467;28;20466;-60
2021/05/14 08:38:27;;;;;;;14.40;12.43;;;;;;;;;;5091858;28;20438;-59
2021/05/14 08:40:55;;;;;;;18.40;13.37;;;;;;;;;;5092342;28;20446;-59
2021/05/14 08:43:22;;;;;;;13.43;12.10;;;;;;;;;;5092659;28;20489;-60
2021/05/14 08:45:50;;;;;;;14.97;12.43;;;;;;;;;;5092639;28;20522;-60
2021/05/14 08:48:17;;;;;;;13.67;12.33;;;;;;;;;;5092230;28;20489;-59
2021/05/14 08:50:44;;;;;;;14.23;12.73;;;;;;;;;;5092163;28;20491;-59
2021/05/14 08:53:10;;;;;;;16.63;12.30;;;;;;;;;;5093022;28;20438;-59
2021/05/14 08:55:38;;;;;;;13.07;11.70;;;;;;;;;;5095848;28;20469;-59
2021/05/14 08:58:06;;;;;;;14.80;12.30;;;;;;;;;;5096379;28;20564;-59
2021/05/14 09:00:32;;;;;;;14.07;12.67;;;;;;;;;;5095975;28;20442;-59
2021/05/14 09:02:59;;;;;;;14.13;12.73;;;;;;;;;;5096232;28;20449;-59
2021/05/14 09:05:28;;;;;;;12.90;11.70;;;;;;;;;;5095651;28;20795;-58
2021/05/14 09:07:56;;;;;;;13.77;11.70;;;;;;;;;;5096907;28;20481;-59
2021/05/14 09:10:23;;;;;;;13.87;12.47;;;;;;;;;;5095790;28;21039;-59
2021/05/14 09:12:49;;;;;;;13.97;12.67;;;;;;;;;;5096256;28;20439;-60
2021/05/14 09:15:24;;;;;;;14.43;11.20;;;;;;;;;;5095736;28;20438;-59
2021/05/14 09:18:06;;;;;;;13.67;12.27;;;;;;;;;;5095658;28;20604;-59
2021/05/14 09:20:34;;;;;;;12.10;10.83;;;;;;;;;;5093889;28;20484;-59
2021/05/14 09:23:01;;;;;;;12.63;11.30;;;;;;;;;;5095901;28;20550;-59
2021/05/14 09:25:28;;;;;;;12.67;10.93;;;;;;;;;;5095589;28;20453;-60
2021/05/14 09:27:55;;;;;;;12.20;10.97;;;;;;;;;;5096157;28;20479;-59
2021/05/14 09:30:22;;;;;;;11.00;9.90;;;;;;;;;;5096243;28;20496;-60
2021/05/14 09:32:49;;;;;;;12.70;11.40;;;;;;;;;;5095969;28;20805;-60
2021/05/14 09:35:16;;;;;;;11.50;10.30;;;;;;;;;;5096007;28;20447;-60
2021/05/14 09:37:46;;;;;;;11.80;10.00;;;;;;;;;;5095677;28;20444;-60
2021/05/14 09:40:14;;;;;;;11.23;10.13;;;;;;;;;;5095795;28;20496;-60
2021/05/14 09:42:41;;;;;;;10.33;9.33;;;;;;;;;;5096266;28;20447;-60
2021/05/14 09:45:18;;;;;;;11.50;10.40;;;;;;;;;;5095555;28;20447;-60
2021/05/14 09:47:45;;;;;;;12.70;11.17;;;;;;;;;;5095454;28;20479;-60
2021/05/14 09:50:29;;;;;;;11.87;10.67;;;;;;;;;;5095550;28;20440;-60
2021/05/14 09:53:04;;;;;;;11.63;10.43;;;;;;;;;;5095174;28;20529;-60
2021/05/14 09:55:31;;;;;;;14.00;11.53;;;;;;;;;;5094888;28;20472;-60
2021/05/14 09:58:02;;;;;;;14.30;11.27;;;;;;;;;;5094716;28;20485;-60
2021/05/14 10:00:29;;;;;;;14.87;12.60;;;;;;;;;;5095336;28;20456;-59
2021/05/14 10:02:58;;;;;;;14.13;12.17;;;;;;;;;;5094907;28;20488;-60
2021/05/14 10:05:24;;;;;;;14.87;13.30;;;;;;;;;;5094605;28;20528;-59
2021/05/14 10:07:52;;;;;;;15.20;12.43;;;;;;;;;;5094082;28;20484;-60
2021/05/14 10:10:20;;;;;;;14.37;12.77;;;;;;;;;;5094586;28;20446;-60
2021/05/14 10:12:48;;;;;;;13.47;12.07;;;;;;;;;;5094936;28;20978;-60
2021/05/14 10:15:15;;;;;;;15.43;12.80;;;;;;;;;;5094912;28;20499;-62
2021/05/14 10:17:44;;;;;;;14.40;12.50;;;;;;;;;;5094517;28;20504;-60
2021/05/14 10:20:14;;;;;;;14.70;12.93;;;;;;;;;;5094430;28;20445;-60
2021/05/14 10:22:41;;;;;;;14.33;12.80;;;;;;;;;;5094692;28;20438;-61
2021/05/14 10:25:08;;;;;;;15.40;13.20;;;;;;;;;;5094471;28;20453;-60
2021/05/14 10:27:40;;;;;;;13.40;11.80;;;;;;;;;;5094499;28;20479;-60
2021/05/14 10:30:08;;;;;;;13.53;12.13;;;;;;;;;;5094382;28;20898;-61
2021/05/14 10:32:51;;;;;;;12.50;11.10;;;;;;;;;;5094376;28;20454;-61
2021/05/14 10:35:18;;;;;;;15.60;12.37;;;;;;;;;;5094089;28;20450;-60
2021/05/14 10:37:46;;;;;;;11.30;10.20;;;;;;;;;;5094306;28;20450;-60
2021/05/14 10:40:32;;;;;;;13.13;11.83;;;;;;;;;;5094290;28;20440;-59
2021/05/14 10:43:00;;;;;;;13.23;11.83;;;;;;;;;;5094353;28;20450;-60
2021/05/14 10:45:34;;;;;;;15.27;12.10;;;;;;;;;;5093641;28;20446;-60
2021/05/14 10:48:01;;;;;;;13.47;12.07;;;;;;;;;;5094002;28;20462;-60
2021/05/14 10:50:32;;;;;;;18.87;13.13;;;;;;;;;;5094069;28;20446;-59
2021/05/14 10:53:17;;;;;;;12.97;11.50;;;;;;;;;;5093613;28;20948;-60
2021/05/14 10:55:44;;;;;;;13.70;12.30;;;;;;;;;;5093910;28;20480;-59
2021/05/14 10:58:33;;;;;;;14.43;12.60;;;;;;;;;;5094321;28;20499;-59
2021/05/14 11:01:00;;;;;;;14.37;12.87;;;;;;;;;;5093631;28;20450;-59
2021/05/14 11:03:32;;;;;;;14.07;12.60;;;;;;;;;;5093743;28;20927;-61
2021/05/14 11:06:09;;;;;;;13.30;12.00;;;;;;;;;;5093881;28;20496;-60
2021/05/14 11:08:44;;;;;;;13.47;11.60;;;;;;;;;;5093827;28;20469;-59
2021/05/14 11:11:13;;;;;;;13.97;11.63;;;;;;;;;;5093448;28;20608;-60
2021/05/14 11:13:44;;;;;;;13.30;11.90;;;;;;;;;;5093584;28;20490;-59
2021/05/14 11:16:30;;;;;;;14.20;11.57;;;;;;;;;;5093594;28;20529;-59
2021/05/14 11:18:57;;;;;;;14.17;12.77;;;;;;;;;;5093838;28;20439;-61
2021/05/14 11:21:24;;;;;;;14.93;12.53;;;;;;;;;;5093717;28;20518;-61
2021/05/14 11:24:06;;;;;;;13.33;11.93;;;;;;;;;;5093775;28;20442;-59
2021/05/14 11:26:33;;;;;;;16.10;12.77;;;;;;;;;;5093188;28;20508;-59
2021/05/14 11:29:00;;;;;;;13.87;12.30;;;;;;;;;;5093237;28;20520;-59
2021/05/14 11:31:27;;;;;;;15.40;13.00;;;;;;;;;;5092986;28;20468;-61
2021/05/14 11:33:55;;;;;;;15.13;13.53;;;;;;;;;;5093549;28;20812;-61
2021/05/14 11:36:22;;;;;;;13.90;12.50;;;;;;;;;;5093356;28;20470;-60
2021/05/14 11:38:50;;;;;;;13.90;12.50;;;;;;;;;;5093412;28;20438;-61
2021/05/14 11:41:17;;;;;;;15.80;13.40;;;;;;;;;;5093186;28;20452;-60
2021/05/14 11:43:54;;;;;;;14.83;12.20;;;;;;;;;;5093274;28;20447;-61
2021/05/14 11:46:23;;;;;;;16.23;14.70;;;;;;;;;;5092509;28;20466;-61
2021/05/14 11:48:50;;;;;;;14.83;13.23;;;;;;;;;;5093546;28;20446;-61
2021/05/14 11:51:17;;;;;;;12.70;11.43;;;;;;;;;;5093279;28;20447;-60
2021/05/14 11:53:44;;;;;;;13.10;11.83;;;;;;;;;;5092948;28;20445;-61
2021/05/14 11:56:10;;;;;;;14.03;12.63;;;;;;;;;;5093068;28;20796;-61
2021/05/14 11:58:39;;;;;;;15.27;11.53;;;;;;;;;;5093148;28;20799;-61
2021/05/14 12:01:07;;;;;;;13.40;12.00;;;;;;;;;;5093258;28;20453;-60
2021/05/14 12:03:34;;;;;;;13.63;12.20;;;;;;;;;;5093509;28;20562;-61
2021/05/14 12:06:05;;;;;;;14.50;12.70;;;;;;;;;;5092857;28;20474;-61
2021/05/14 12:08:32;;;;;;;13.80;12.40;;;;;;;;;;5093105;28;20558;-61
2021/05/14 12:11:01;;;;;;;15.90;13.40;;;;;;;;;;5093112;28;20458;-62
2021/05/14 12:13:29;;;;;;;15.77;13.40;;;;;;;;;;5093090;28;20446;-60
2021/05/14 12:15:59;;;;;;;15.73;13.17;;;;;;;;;;5093152;28;20462;-60
2021/05/14 12:18:26;;;;;;;13.63;12.27;;;;;;;;;;5094087;28;20933;-60
2021/05/14 12:20:56;;;;;;;14.33;12.87;;;;;;;;;;5094140;28;20836;-60
2021/05/14 12:23:24;;;;;;;13.80;12.40;;;;;;;;;;5094409;28;20454;-61
2021/05/14 12:25:51;;;;;;;14.10;12.67;;;;;;;;;;5094328;28;21056;-60
2021/05/14 12:28:32;;;;;;;15.50;13.90;;;;;;;;;;5096938;28;20474;-60
2021/05/14 12:30:59;;;;;;;15.50;14.07;;;;;;;;;;5104885;28;20429;-62
2021/05/14 12:33:26;;;;;;;14.90;13.23;;;;;;;;;;5100721;28;20446;-65
2021/05/14 12:35:58;;;;;;;14.97;12.87;;;;;;;;;;5101631;28;20573;-61
2021/05/14 12:38:38;;;;;;;16.27;14.60;;;;;;;;;;5098647;28;20442;-61
2021/05/14 12:41:05;;;;;;;14.77;13.27;;;;;;;;;;5097964;28;20662;-61
2021/05/14 12:43:31;;;;;;;17.17;13.37;;;;;;;;;;5096370;28;20546;-61
2021/05/14 12:46:05;;;;;;;16.50;13.57;;;;;;;;;;5096930;28;20460;-60
2021/05/14 12:48:32;;;;;;;14.80;13.40;;;;;;;;;;5097082;28;20563;-61
2021/05/14 12:50:59;;;;;;;16.27;14.67;;;;;;;;;;5098426;28;20442;-59
2021/05/14 12:53:26;;;;;;;18.30;14.83;;;;;;;;;;5096959;28;20496;-59
2021/05/14 12:55:53;;;;;;;15.10;13.60;;;;;;;;;;5096271;28;20465;-59
2021/05/14 12:58:20;;;;;;;17.90;14.83;;;;;;;;;;5095990;28;20449;-59
2021/05/14 13:00:47;;;;;;;15.00;13.53;;;;;;;;;;5096047;28;20450;-59
2021/05/14 13:03:14;;;;;;;15.20;13.60;;;;;;;;;;5096035;28;20542;-61
2021/05/14 13:05:41;;;;;;;14.03;12.53;;;;;;;;;;5095960;28;20466;-60
2021/05/14 13:08:09;;;;;;;15.70;14.10;;;;;;;;;;5096131;28;20462;-61
2021/05/14 13:10:42;;;;;;;14.53;13.03;;;;;;;;;;5095831;28;20442;-61
2021/05/14 13:13:09;;;;;;;15.87;14.37;;;;;;;;;;5095993;28;20465;-58
2021/05/14 13:15:36;;;;;;;15.90;12.93;;;;;;;;;;5097007;28;20484;-59
2021/05/14 13:18:03;;;;;;;14.93;13.43;;;;;;;;;;5096354;28;20438;-59
2021/05/14 13:20:29;;;;;;;14.77;13.30;;;;;;;;;;5096053;28;20449;-59
2021/05/14 13:22:56;;;;;;;15.90;14.23;;;;;;;;;;5096007;28;20448;-59
2021/05/14 13:25:24;;;;;;;18.00;14.50;;;;;;;;;;5095439;28;20529;-60
2021/05/14 13:27:50;;;;;;;16.37;13.10;;;;;;;;;;5095785;28;20473;-59
2021/05/14 13:30:18;;;;;;;16.17;14.40;;;;;;;;;;5096383;28;20560;-59
2021/05/14 13:32:45;;;;;;;17.80;13.97;;;;;;;;;;5095550;28;20457;-60
2021/05/14 13:35:12;;;;;;;18.27;12.87;;;;;;;;;;5096182;28;20450;-60
2021/05/14 13:37:39;;;;;;;19.40;13.50;;;;;;;;;;5096280;28;20463;-58
2021/05/14 13:40:06;;;;;;;12.80;11.50;;;;;;;;;;5095048;28;20448;-59
2021/05/14 13:42:34;;;;;;;11.77;10.60;;;;;;;;;;5095607;28;20952;-61
2021/05/14 13:45:01;;;;;;;12.33;11.13;;;;;;;;;;5095316;28;20935;-59
2021/05/14 13:47:28;;;;;;;12.83;11.40;;;;;;;;;;5095464;28;20477;-60
2021/05/14 13:49:55;;;;;;;15.07;13.50;;;;;;;;;;5095519;28;20538;-59
2021/05/14 13:52:22;;;;;;;13.57;12.00;;;;;;;;;;5095883;28;20501;-59
2021/05/14 13:54:49;;;;;;;13.17;11.97;;;;;;;;;;5095016;28;20448;-59
2021/05/14 13:57:16;;;;;;;14.43;13.03;;;;;;;;;;5095035;28;20468;-59
2021/05/14 13:59:43;;;;;;;12.60;11.30;;;;;;;;;;5095373;28;20445;-60
2021/05/14 14:02:10;;;;;;;14.23;12.73;;;;;;;;;;5095533;28;20436;-59
2021/05/14 14:04:37;;;;;;;13.80;12.37;;;;;;;;;;5095339;28;20440;-60
2021/05/14 14:07:04;;;;;;;13.57;12.23;;;;;;;;;;5094753;28;20483;-60
2021/05/14 14:09:30;;;;;;;13.10;11.77;;;;;;;;;;5095252;28;20865;-59
2021/05/14 14:11:57;;;;;;;14.47;12.37;;;;;;;;;;5094843;28;20557;-59
2021/05/14 14:14:25;;;;;;;12.60;11.30;;;;;;;;;;5095416;28;20447;-60
2021/05/14 14:16:53;;;;;;;12.00;10.73;;;;;;;;;;5095313;28;20523;-60
2021/05/14 14:19:19;;;;;;;12.93;11.67;;;;;;;;;;5095198;28;20451;-60
2021/05/14 14:21:47;;;;;;;11.80;10.70;;;;;;;;;;5094839;28;20448;-60
2021/05/14 14:24:14;;;;;;;12.90;11.60;;;;;;;;;;5095072;28;20519;-60
2021/05/14 14:26:41;;;;;;;12.27;10.97;;;;;;;;;;5094514;28;20472;-60
2021/05/14 14:29:08;;;;;;;12.43;11.03;;;;;;;;;;5094489;28;20451;-60
2021/05/14 14:31:34;;;;;;;12.40;11.10;;;;;;;;;;5094330;28;20438;-60